Map

Track Data

SID SEASON NUMBER BASIN SUBBASIN NAME ISO_TIME NATURE LAT LON WMO_WIND WMO_PRES WMO_AGENCY TRACK_TYPE DIST2LAND LANDFALL IFLAG USA_AGENCY USA_ATCF_ID USA_LAT USA_LON USA_RECORD USA_STATUS USA_WIND USA_PRES USA_SSHS USA_R34_NE USA_R34_SE USA_R34_SW USA_R34_NW USA_R50_NE USA_R50_SE USA_R50_SW USA_R50_NW USA_R64_NE USA_R64_SE USA_R64_SW USA_R64_NW USA_POCI USA_ROCI USA_RMW USA_EYE TOKYO_LAT TOKYO_LON TOKYO_GRADE TOKYO_WIND TOKYO_PRES TOKYO_R50_DIR TOKYO_R50_LONG TOKYO_R50_SHORT TOKYO_R30_DIR TOKYO_R30_LONG TOKYO_R30_SHORT TOKYO_LAND CMA_LAT CMA_LON CMA_CAT CMA_WIND CMA_PRES HKO_LAT HKO_LON HKO_CAT HKO_WIND HKO_PRES NEWDELHI_LAT NEWDELHI_LON NEWDELHI_GRADE NEWDELHI_WIND NEWDELHI_PRES NEWDELHI_CI NEWDELHI_DP NEWDELHI_POCI REUNION_LAT REUNION_LON REUNION_TYPE REUNION_WIND REUNION_PRES REUNION_TNUM REUNION_CI REUNION_RMW REUNION_R34_NE REUNION_R34_SE REUNION_R34_SW REUNION_R34_NW REUNION_R50_NE REUNION_R50_SE REUNION_R50_SW REUNION_R50_NW REUNION_R64_NE REUNION_R64_SE REUNION_R64_SW REUNION_R64_NW BOM_LAT BOM_LON BOM_TYPE BOM_WIND BOM_PRES BOM_TNUM BOM_CI BOM_RMW BOM_R34_NE BOM_R34_SE BOM_R34_SW BOM_R34_NW BOM_R50_NE BOM_R50_SE BOM_R50_SW BOM_R50_NW BOM_R64_NE BOM_R64_SE BOM_R64_SW BOM_R64_NW BOM_ROCI BOM_POCI BOM_EYE BOM_POS_METHOD BOM_PRES_METHOD NADI_LAT NADI_LON NADI_CAT NADI_WIND NADI_PRES WELLINGTON_LAT WELLINGTON_LON WELLINGTON_WIND WELLINGTON_PRES DS824_LAT DS824_LON DS824_STAGE DS824_WIND DS824_PRES TD9636_LAT TD9636_LON TD9636_STAGE TD9636_WIND TD9636_PRES TD9635_LAT TD9635_LON TD9635_WIND TD9635_PRES TD9635_ROCI NEUMANN_LAT NEUMANN_LON NEUMANN_CLASS NEUMANN_WIND NEUMANN_PRES MLC_LAT MLC_LON MLC_CLASS MLC_WIND MLC_PRES USA_GUST BOM_GUST BOM_GUST_PER REUNION_GUST REUNION_GUST_PER USA_SEAHGT USA_SEARAD_NE USA_SEARAD_SE USA_SEARAD_SW USA_SEARAD_NW STORM_SPEED STORM_DIR
1963277N15096 1963 96 NI BB NOT_NAMED 1963-10-03 18:00:00 TS 14.8000 96.0000 main 114 114 O________O____ jtwc_io IO131963 14.8000 96.0000 -1 14.8000 96.0000 TC 1 0
1963277N15096 1963 96 NI BB NOT_NAMED 1963-10-03 21:00:00 TS 14.7300 96.0074 main 124 109 P________P____ IO131963 14.7300 96.0074 -1 14.7300 96.0074 TC 1 270
1963277N15096 1963 96 NI BB NOT_NAMED 1963-10-04 00:00:00 TS 14.8000 95.9000 main 109 68 O________O____ jtwc_io IO131963 14.8000 95.9000 -1 14.8000 95.9000 TC 25 5 313
1963277N15096 1963 96 NI BB NOT_NAMED 1963-10-04 03:00:00 TS 15.0977 95.5911 main 68 24 P________PO___ IO131963 15.0974 95.5900 -1 15.0974 95.5900 TC 25 15.1000 95.6000 1 11 311
1963277N15096 1963 96 NI BB NOT_NAMED 1963-10-04 06:00:00 TS 15.4994 95.0724 main 24 10 O________OP___ jtwc_io IO131963 15.5000 95.1000 -1 15.5000 95.1000 TC 25 15.4972 94.9620 1 14 304
1963277N15096 1963 96 NI BB NOT_NAMED 1963-10-04 09:00:00 TS 15.8543 94.4223 main 0 0 P________PP___ IO131963 15.8429 94.4501 -1 15.8429 94.4501 TC 25 15.8847 94.3481 1 14 300
1963277N15096 1963 96 NI BB NOT_NAMED 1963-10-04 12:00:00 TS 16.2183 93.7950 main 48 48 O________OP___ jtwc_io IO131963 16.2000 93.8000 -1 16.2000 93.8000 TC 25 16.2548 93.7850 1 13 306
1963277N15096 1963 96 NI BB NOT_NAMED 1963-10-04 15:00:00 TS 16.6048 93.3366 main 107 107 P________PO___ IO131963 16.6072 93.3548 -1 16.6072 93.3548 TC 25 16.6000 93.3000 1 11 314
1963277N15096 1963 96 NI BB NOT_NAMED 1963-10-04 18:00:00 TS 16.9732 92.9699 main 149 149 O________OP___ jtwc_io IO131963 17.0000 93.0000 -1 17.0000 93.0000 TC 25 16.9197 92.9096 1 10 314
1963277N15096 1963 96 NI BB NOT_NAMED 1963-10-04 21:00:00 TS 17.2745 92.6240 main 196 196 P________PP___ IO131963 17.2924 92.6421 -1 17.2924 92.6421 TC 25 17.2388 92.5876 1 9 314
1963277N15096 1963 96 NI BB NOT_NAMED 1963-10-05 00:00:00 TS 17.5962 92.2990 main 215 207 O________OP___ jtwc_io IO131963 17.6000 92.3000 -1 17.6000 92.3000 TC 25 17.5886 92.2970 1 10 319
1963277N15096 1963 96 NI BB NOT_NAMED 1963-10-05 03:00:00 TS 17.9983 91.9715 main 211 209 P________PO___ IO131963 17.9974 91.9572 -1 17.9974 91.9572 TC 25 18.0000 92.0000 1 11 324
1963277N15096 1963 96 NI BB NOT_NAMED 1963-10-05 06:00:00 TS 18.5266 91.5989 main 225 198 O________OP___ jtwc_io IO131963 18.5000 91.6000 -1 18.5000 91.6000 TC 25 18.5797 91.5966 1 14 328
1963277N15096 1963 96 NI BB NOT_NAMED 1963-10-05 09:00:00 TS 19.1803 91.1854 main 199 192 P________PP___ IO131963 19.1651 91.1855 -1 19.1651 91.1855 TC 25 19.2106 91.1853 1 15 329
1963277N15096 1963 96 NI BB NOT_NAMED 1963-10-05 12:00:00 TS 19.8037 90.8020 main 194 181 O________OP___ jtwc_io IO131963 19.8000 90.8000 -1 19.8000 90.8000 TC 25 19.8111 90.8060 1 13 329
1963277N15096 1963 96 NI BB NOT_NAMED 1963-10-05 15:00:00 TS 20.2549 90.4982 main 170 145 P________PO___ IO131963 20.2324 90.4972 -1 20.2324 90.4972 TC 25 20.3000 90.5000 1 8 327
1963277N15096 1963 96 NI BB NOT_NAMED 1963-10-05 18:00:00 TS 20.5117 90.3091 main 145 134 O________OP___ jtwc_io IO131963 20.5000 90.3000 -1 20.5000 90.3000 TC 25 20.5350 90.3272 1 4 326
1963277N15096 1963 96 NI BB NOT_NAMED 1963-10-05 21:00:00 TS 20.6247 90.2332 main 134 123 P________PP___ IO131963 20.6074 90.2347 -1 20.6074 90.2347 TC 25 20.6593 90.2302 1 2 332
1963277N15096 1963 96 NI BB NOT_NAMED 1963-10-06 00:00:00 TS 20.7180 90.1894 main 123 100 O________OP___ jtwc_io IO131963 20.7000 90.2000 -1 20.7000 90.2000 TC 25 20.7539 90.1682 1 3 336
1963277N15096 1963 96 NI BB NOT_NAMED 1963-10-06 03:00:00 TS 20.9367 90.0817 main 100 56 P________PO___ IO131963 20.9550 90.0725 -1 20.9550 90.0725 TC 25 20.9000 90.1000 1 6 334
1963277N15096 1963 96 NI BB NOT_NAMED 1963-10-06 06:00:00 TS 21.2796 89.8935 main 56 11 O________OP___ jtwc_io IO131963 21.3000 89.9000 -1 21.3000 89.9000 TC 25 21.2388 89.8806 1 8 332
1963277N15096 1963 96 NI BB NOT_NAMED 1963-10-06 09:00:00 TS 21.6833 89.6619 main 11 0 P________PP___ IO131963 21.7076 89.6629 -1 21.7076 89.6629 TC 25 21.6348 89.6598 1 9 336
1963277N15096 1963 96 NI BB NOT_NAMED 1963-10-06 12:00:00 TS 22.0795 89.5030 main 0 0 O________OP___ jtwc_io IO131963 22.1000 89.5000 -1 22.1000 89.5000 TC 25 22.0384 89.5088 1 7 348
1963277N15096 1963 96 NI BB NOT_NAMED 1963-10-06 15:00:00 TS 22.3865 89.5016 main 0 0 P________PO___ IO131963 22.3798 89.5025 -1 22.3798 89.5025 TC 25 22.4000 89.5000 1 6 19
1963277N15096 1963 96 NI BB NOT_NAMED 1963-10-06 18:00:00 TS 22.6197 89.7104 main 0 0 O________OP___ jtwc_io IO131963 22.6000 89.7000 -1 22.6000 89.7000 TC 25 22.6590 89.7311 1 7 52
1963277N15096 1963 96 NI BB NOT_NAMED 1963-10-06 21:00:00 TS 22.8280 90.1103 main 0 0 P________PP___ IO131963 22.8078 90.1124 -1 22.8078 90.1124 TC 25 22.8684 90.1062 1 9 64
1963277N15096 1963 96 NI BB NOT_NAMED 1963-10-07 00:00:00 TS 23.0145 90.5845 main 0 0 O________OP___ jtwc_io IO131963 23.0000 90.6000 -1 23.0000 90.6000 TC 25 23.0435 90.5534 1 9 65
1963277N15096 1963 96 NI BB NOT_NAMED 1963-10-07 03:00:00 TS 23.2049 90.9767 main 0 0 P________PO___ IO131963 23.2073 90.9651 -1 23.2073 90.9651 TC 25 23.2000 91.0000 1 8 62
1963277N15096 1963 96 NI BB NOT_NAMED 1963-10-07 06:00:00 TS 23.3807 91.3355 main 0 0 O________OP___ jtwc_io IO131963 23.4000 91.3000 -1 23.4000 91.3000 TC 25 23.3517 91.3887 1 7 63
1963277N15096 1963 96 NI BB NOT_NAMED 1963-10-07 09:00:00 TS 23.5353 91.6782 main 0 0 P________PP___ IO131963 23.5602 91.6449 -1 23.5602 91.6449 TC 25 23.5020 91.7227 1 7 65
1963277N15096 1963 96 NI BB NOT_NAMED 1963-10-07 12:00:00 TS 23.6757 92.0101 main 0 0 O________OP___ jtwc_io IO131963 23.7000 92.0000 -1 23.7000 92.0000 TC 25 23.6513 92.0203 1 6 65
1963277N15096 1963 96 NI BB NOT_NAMED 1963-10-07 15:00:00 NR 23.8000 92.3000 main 0 __________O___ IO131963 -1 TC 23.8000 92.3000 1 6 65

About IBTrACS Database

This database is a web-friendly format of International Best Track Archive for Climate Stewardship (IBTrACS), a global best track data archive curated by NOAA dating back to 1842.

Updated: 2021-10-27